Flugplatz - Wetter - Augsburg

[Quelle: ADDS]
METAR
EDMA 201650Z 10001KT CAVOK 09/07 Q1028 =
EDMA 201400Z 2015/2024 VRB03KT 9000 FEW040 BECMG 2018/2021 3500 BR TEMPO 2022/2024 0600 FG
TAF
EDMA 201400Z 2015/2024 VRB03KT 9000 FEW040 BECMG 2018/2021 3500 BR TEMPO 2022/2024 0600 FG =
SR / SS: 05:44 / 16:20 UTC (Augsburg 2018-10-20)

Flugplatz - Wetter - Laupheim

[Quelle: ADDS]
METAR
ETHL 201620Z 00000KT 6000 SCT300 12/09 Q1028 WHT =
TAF
SR / SS: 05:48 / 16:24 UTC (Laupheim 2018-10-20)

Flugplatz - Wetter - Memmingen

[Quelle: ADDS]
METAR
EDJA 201650Z 06002KT 7000 NSC 10/08 Q1028 =
EDJA 201400Z 2015/2024 04004KT 9999 FEW030 BECMG 2020/2023 2500 BCFG
TAF
EDJA 201400Z 2015/2024 04004KT 9999 FEW030 BECMG 2020/2023 2500 BCFG =
SR / SS: 05:45 / 16:23 UTC (Memmingen 2018-10-20)

Flugplatz - Wetter - Neuburg/Donau

[Quelle: ADDS]
METAR
ETSN 201620Z VRB02KT 9000 FEW040 SCT270 12/07 Q1027 BLU+ =
ETSN 201640Z 2017/2102 24005KT 8000 NSW BKN050 BKN320 BECMG 2019/2021 28005KT 5000 BR SCT050 BKN200 TEMPO 2022/2102 26003KT 3000 BR FEW040 SCT250 PROB30 2100/2102 VRB02KT 0200 FG BKN002 BY ETGL
TAF
ETSN 201640Z 2017/2102 24005KT 8000 NSW BKN050 BKN320 BECMG 2019/2021 28005KT 5000 BR SCT050 BKN200 TEMPO 2022/2102 26003KT 3000 BR FEW040 SCT250 PROB30 2100/2102 VRB02KT 0200 FG BKN002 BY ETGL =
SR / SS: 05:42 / 16:17 UTC (Neuburg 2018-10-20)

Flugplatz - Wetter - Stuttgart

[Quelle: ADDS]
METAR
EDDS 201650Z VRB04KT CAVOK 14/09 Q1028 NOSIG =
EDDS 201100Z 2012/2112 VRB03KT 7000 NSC BECMG 2100/2103 4000 BR PROB40 TEMPO 2103/2108 1200 BCFG BKN002
TAF
EDDS 201100Z 2012/2112 VRB03KT 7000 NSC BECMG 2100/2103 4000 BR PROB40 TEMPO 2103/2108 1200 BCFG BKN002 =
SR / SS: 05:50 / 16:25 UTC (Stuttgart 2018-10-20)

Flugplatz - Wetter - Niederstetten

[Quelle: ADDS]
METAR
ETHN 201620Z 01003KT 9999 BKN280 12/03 Q1028 BLU+ =
TAF
SR / SS: 05:50 / 16:22 UTC (Niederstetten 2018-10-20)